Manasota, Florida
Current Conditions -  °F | °C
As of 2:35 AM on Monday 22 Dec 2014 (Local Time) from KVNC Reporting Station
Few Clouds Few Clouds  
Wind Chill: 70°   Ceiling: Unl
Heat Index: 70°   Visibility: 10mi
Dew Point: 68°   Wind: 13mph
Humidity: 94%   Direction: 150°SSE
Pressure: 29.99"   Gusts: 18mph
Location:  27.01°N, 82.4°W
Report Text: KVNC 220735Z AUTO 15011G16KT 10SM FEW120 21/20 A2999 RMK AO2 TSNO
Loading
Personal Weather Stations






























Interactive Weather Map New forecast layout! Learn more

10-Day Weather Forecast

Advertisements
Track Severe Weather on mobile